sensor_id;sensor_type;location;lat;lon;timestamp;P1;durP1;ratioP1;P2;durP2;ratioP2
27365;SDS011;14837;57.148;-2.144;2023-05-07T00:00:14;8.68;;;3.90;;
27365;SDS011;14837;57.148;-2.144;2023-05-07T00:02:42;9.77;;;4.10;;
27365;SDS011;14837;57.148;-2.144;2023-05-07T00:05:09;11.88;;;3.90;;
27365;SDS011;14837;57.148;-2.144;2023-05-07T00:07:36;19.23;;;4.25;;
27365;SDS011;14837;57.148;-2.144;2023-05-07T00:10:03;20.98;;;5.28;;
27365;SDS011;14837;57.148;-2.144;2023-05-07T00:12:30;23.48;;;4.65;;
27365;SDS011;14837;57.148;-2.144;2023-05-07T00:14:57;7.07;;;4.28;;
27365;SDS011;14837;57.148;-2.144;2023-05-07T00:17:24;12.60;;;3.60;;
27365;SDS011;14837;57.148;-2.144;2023-05-07T00:19:51;7.25;;;2.70;;
27365;SDS011;14837;57.148;-2.144;2023-05-07T00:22:17;14.70;;;3.97;;
27365;SDS011;14837;57.148;-2.144;2023-05-07T00:24:44;13.57;;;3.60;;
27365;SDS011;14837;57.148;-2.144;2023-05-07T00:27:10;19.10;;;4.05;;
27365;SDS011;14837;57.148;-2.144;2023-05-07T00:29:37;16.88;;;3.75;;
27365;SDS011;14837;57.148;-2.144;2023-05-07T00:32:03;3.40;;;2.97;;
27365;SDS011;14837;57.148;-2.144;2023-05-07T00:34:30;19.15;;;3.70;;
27365;SDS011;14837;57.148;-2.144;2023-05-07T00:36:57;10.23;;;3.70;;
27365;SDS011;14837;57.148;-2.144;2023-05-07T00:39:23;13.18;;;6.20;;
27365;SDS011;14837;57.148;-2.144;2023-05-07T00:41:50;22.60;;;5.22;;
27365;SDS011;14837;57.148;-2.144;2023-05-07T00:44:17;13.35;;;5.18;;
27365;SDS011;14837;57.148;-2.144;2023-05-07T00:46:44;22.83;;;6.68;;
27365;SDS011;14837;57.148;-2.144;2023-05-07T00:49:11;59.28;;;8.63;;
27365;SDS011;14837;57.148;-2.144;2023-05-07T00:51:38;19.85;;;5.45;;
27365;SDS011;14837;57.148;-2.144;2023-05-07T00:54:04;28.63;;;5.35;;
27365;SDS011;14837;57.148;-2.144;2023-05-07T00:56:31;30.90;;;6.22;;
27365;SDS011;14837;57.148;-2.144;2023-05-07T00:58:58;16.25;;;5.07;;
27365;SDS011;14837;57.148;-2.144;2023-05-07T01:01:24;44.30;;;6.50;;
27365;SDS011;14837;57.148;-2.144;2023-05-07T01:03:52;14.05;;;4.78;;
27365;SDS011;14837;57.148;-2.144;2023-05-07T01:06:20;34.50;;;5.45;;
27365;SDS011;14837;57.148;-2.144;2023-05-07T01:08:47;22.67;;;4.68;;
27365;SDS011;14837;57.148;-2.144;2023-05-07T01:11:16;13.85;;;4.28;;
27365;SDS011;14837;57.148;-2.144;2023-05-07T01:13:43;20.48;;;4.30;;
27365;SDS011;14837;57.148;-2.144;2023-05-07T01:16:10;13.75;;;4.47;;
27365;SDS011;14837;57.148;-2.144;2023-05-07T01:18:36;19.77;;;5.20;;
27365;SDS011;14837;57.148;-2.144;2023-05-07T01:21:04;10.30;;;3.65;;
27365;SDS011;14837;57.148;-2.144;2023-05-07T01:23:30;20.63;;;4.97;;
27365;SDS011;14837;57.148;-2.144;2023-05-07T01:25:57;13.35;;;4.15;;
27365;SDS011;14837;57.148;-2.144;2023-05-07T01:28:24;27.33;;;5.53;;
27365;SDS011;14837;57.148;-2.144;2023-05-07T01:30:52;12.73;;;5.53;;
27365;SDS011;14837;57.148;-2.144;2023-05-07T01:33:20;19.85;;;5.07;;
27365;SDS011;14837;57.148;-2.144;2023-05-07T01:35:50;15.48;;;4.38;;
27365;SDS011;14837;57.148;-2.144;2023-05-07T01:38:17;23.27;;;4.15;;
27365;SDS011;14837;57.148;-2.144;2023-05-07T01:40:44;30.33;;;5.32;;
27365;SDS011;14837;57.148;-2.144;2023-05-07T01:43:11;23.02;;;4.82;;
27365;SDS011;14837;57.148;-2.144;2023-05-07T01:45:38;29.92;;;4.70;;
27365;SDS011;14837;57.148;-2.144;2023-05-07T01:48:05;14.98;;;4.18;;
27365;SDS011;14837;57.148;-2.144;2023-05-07T01:50:33;22.27;;;4.82;;
27365;SDS011;14837;57.148;-2.144;2023-05-07T01:52:59;14.38;;;4.35;;
27365;SDS011;14837;57.148;-2.144;2023-05-07T01:55:27;13.27;;;4.60;;
27365;SDS011;14837;57.148;-2.144;2023-05-07T01:57:53;21.48;;;4.95;;
27365;SDS011;14837;57.148;-2.144;2023-05-07T02:00:20;17.02;;;4.50;;
27365;SDS011;14837;57.148;-2.144;2023-05-07T02:02:47;15.10;;;4.63;;
27365;SDS011;14837;57.148;-2.144;2023-05-07T02:05:13;25.90;;;4.32;;
27365;SDS011;14837;57.148;-2.144;2023-05-07T02:07:40;15.95;;;4.82;;
27365;SDS011;14837;57.148;-2.144;2023-05-07T02:10:06;9.77;;;3.50;;
27365;SDS011;14837;57.148;-2.144;2023-05-07T02:12:33;13.13;;;5.00;;
27365;SDS011;14837;57.148;-2.144;2023-05-07T02:15:00;6.60;;;3.72;;
27365;SDS011;14837;57.148;-2.144;2023-05-07T02:17:27;20.33;;;4.88;;
27365;SDS011;14837;57.148;-2.144;2023-05-07T02:19:53;13.45;;;4.65;;
27365;SDS011;14837;57.148;-2.144;2023-05-07T02:22:20;19.80;;;5.30;;
27365;SDS011;14837;57.148;-2.144;2023-05-07T02:24:46;32.95;;;5.47;;
27365;SDS011;14837;57.148;-2.144;2023-05-07T02:27:13;19.30;;;4.90;;
27365;SDS011;14837;57.148;-2.144;2023-05-07T02:29:40;24.50;;;5.68;;
27365;SDS011;14837;57.148;-2.144;2023-05-07T02:32:06;20.42;;;5.38;;
27365;SDS011;14837;57.148;-2.144;2023-05-07T02:34:33;13.55;;;3.92;;
27365;SDS011;14837;57.148;-2.144;2023-05-07T02:36:59;20.05;;;4.63;;
27365;SDS011;14837;57.148;-2.144;2023-05-07T02:39:26;13.10;;;4.40;;
27365;SDS011;14837;57.148;-2.144;2023-05-07T02:41:52;18.05;;;4.60;;
27365;SDS011;14837;57.148;-2.144;2023-05-07T02:44:19;14.88;;;4.45;;
27365;SDS011;14837;57.148;-2.144;2023-05-07T02:46:45;13.18;;;5.00;;
27365;SDS011;14837;57.148;-2.144;2023-05-07T02:49:12;24.35;;;3.92;;
27365;SDS011;14837;57.148;-2.144;2023-05-07T02:51:38;11.57;;;4.82;;
27365;SDS011;14837;57.148;-2.144;2023-05-07T02:54:05;17.05;;;5.47;;
27365;SDS011;14837;57.148;-2.144;2023-05-07T02:56:32;21.63;;;4.90;;
27365;SDS011;14837;57.148;-2.144;2023-05-07T02:58:58;21.98;;;4.45;;
27365;SDS011;14837;57.148;-2.144;2023-05-07T03:01:25;16.77;;;4.72;;
27365;SDS011;14837;57.148;-2.144;2023-05-07T03:03:51;14.88;;;4.05;;
27365;SDS011;14837;57.148;-2.144;2023-05-07T03:06:18;8.07;;;4.72;;
27365;SDS011;14837;57.148;-2.144;2023-05-07T03:08:45;14.13;;;5.28;;
27365;SDS011;14837;57.148;-2.144;2023-05-07T03:11:11;14.75;;;4.63;;
27365;SDS011;14837;57.148;-2.144;2023-05-07T03:13:38;20.20;;;5.32;;
27365;SDS011;14837;57.148;-2.144;2023-05-07T03:16:04;11.00;;;4.45;;
27365;SDS011;14837;57.148;-2.144;2023-05-07T03:18:31;9.40;;;3.92;;
27365;SDS011;14837;57.148;-2.144;2023-05-07T03:20:58;14.38;;;4.22;;
27365;SDS011;14837;57.148;-2.144;2023-05-07T03:23:24;7.55;;;3.50;;
27365;SDS011;14837;57.148;-2.144;2023-05-07T03:25:51;12.15;;;4.00;;
27365;SDS011;14837;57.148;-2.144;2023-05-07T03:28:18;15.15;;;4.28;;
27365;SDS011;14837;57.148;-2.144;2023-05-07T03:30:44;21.48;;;4.20;;
27365;SDS011;14837;57.148;-2.144;2023-05-07T03:33:11;11.55;;;4.55;;
27365;SDS011;14837;57.148;-2.144;2023-05-07T03:35:37;8.88;;;4.22;;
27365;SDS011;14837;57.148;-2.144;2023-05-07T03:38:04;15.55;;;4.68;;
27365;SDS011;14837;57.148;-2.144;2023-05-07T03:40:30;15.45;;;4.15;;
27365;SDS011;14837;57.148;-2.144;2023-05-07T03:42:57;10.05;;;4.53;;
27365;SDS011;14837;57.148;-2.144;2023-05-07T03:45:23;25.38;;;4.97;;
27365;SDS011;14837;57.148;-2.144;2023-05-07T03:47:50;10.43;;;4.35;;
27365;SDS011;14837;57.148;-2.144;2023-05-07T03:50:16;38.45;;;6.35;;
27365;SDS011;14837;57.148;-2.144;2023-05-07T03:52:43;16.10;;;5.47;;
27365;SDS011;14837;57.148;-2.144;2023-05-07T03:55:10;33.80;;;5.80;;
27365;SDS011;14837;57.148;-2.144;2023-05-07T03:57:37;16.67;;;4.63;;
27365;SDS011;14837;57.148;-2.144;2023-05-07T04:00:03;22.90;;;6.00;;
27365;SDS011;14837;57.148;-2.144;2023-05-07T04:02:31;52.53;;;5.90;;
27365;SDS011;14837;57.148;-2.144;2023-05-07T04:04:59;27.50;;;5.28;;
27365;SDS011;14837;57.148;-2.144;2023-05-07T04:07:25;16.38;;;5.60;;
27365;SDS011;14837;57.148;-2.144;2023-05-07T04:09:52;12.57;;;4.82;;
27365;SDS011;14837;57.148;-2.144;2023-05-07T04:12:18;45.92;;;6.70;;
27365;SDS011;14837;57.148;-2.144;2023-05-07T04:14:45;49.13;;;7.30;;
27365;SDS011;14837;57.148;-2.144;2023-05-07T04:17:11;20.55;;;5.22;;
27365;SDS011;14837;57.148;-2.144;2023-05-07T04:19:38;26.52;;;5.35;;
27365;SDS011;14837;57.148;-2.144;2023-05-07T04:22:04;21.02;;;5.85;;
27365;SDS011;14837;57.148;-2.144;2023-05-07T04:24:31;12.95;;;4.78;;
27365;SDS011;14837;57.148;-2.144;2023-05-07T04:26:58;53.53;;;8.55;;
27365;SDS011;14837;57.148;-2.144;2023-05-07T04:29:25;29.35;;;6.63;;
27365;SDS011;14837;57.148;-2.144;2023-05-07T04:31:52;28.55;;;6.20;;
27365;SDS011;14837;57.148;-2.144;2023-05-07T04:34:19;55.03;;;9.57;;
27365;SDS011;14837;57.148;-2.144;2023-05-07T04:36:47;25.65;;;6.72;;
27365;SDS011;14837;57.148;-2.144;2023-05-07T04:39:14;22.05;;;7.40;;
27365;SDS011;14837;57.148;-2.144;2023-05-07T04:41:41;18.55;;;6.57;;
27365;SDS011;14837;57.148;-2.144;2023-05-07T04:44:07;27.65;;;6.82;;
27365;SDS011;14837;57.148;-2.144;2023-05-07T04:46:35;10.25;;;4.45;;
27365;SDS011;14837;57.148;-2.144;2023-05-07T04:49:02;27.63;;;6.88;;
27365;SDS011;14837;57.148;-2.144;2023-05-07T04:51:29;19.77;;;5.25;;
27365;SDS011;14837;57.148;-2.144;2023-05-07T04:53:56;30.17;;;5.82;;
27365;SDS011;14837;57.148;-2.144;2023-05-07T04:56:23;26.67;;;4.80;;
27365;SDS011;14837;57.148;-2.144;2023-05-07T04:58:49;22.67;;;4.90;;
27365;SDS011;14837;57.148;-2.144;2023-05-07T05:01:16;14.25;;;5.28;;
27365;SDS011;14837;57.148;-2.144;2023-05-07T05:03:42;17.60;;;3.97;;
27365;SDS011;14837;57.148;-2.144;2023-05-07T05:06:09;10.75;;;4.82;;
27365;SDS011;14837;57.148;-2.144;2023-05-07T05:08:35;32.05;;;5.88;;
27365;SDS011;14837;57.148;-2.144;2023-05-07T05:11:02;22.17;;;5.65;;
27365;SDS011;14837;57.148;-2.144;2023-05-07T05:13:29;13.77;;;4.30;;
27365;SDS011;14837;57.148;-2.144;2023-05-07T05:15:56;15.05;;;5.57;;
27365;SDS011;14837;57.148;-2.144;2023-05-07T05:18:23;30.67;;;6.45;;
27365;SDS011;14837;57.148;-2.144;2023-05-07T05:20:50;34.63;;;6.10;;
27365;SDS011;14837;57.148;-2.144;2023-05-07T05:23:17;20.05;;;5.43;;
27365;SDS011;14837;57.148;-2.144;2023-05-07T05:25:44;31.35;;;6.13;;
27365;SDS011;14837;57.148;-2.144;2023-05-07T05:28:10;37.78;;;5.28;;
27365;SDS011;14837;57.148;-2.144;2023-05-07T05:30:37;28.48;;;5.88;;
27365;SDS011;14837;57.148;-2.144;2023-05-07T05:33:03;18.95;;;5.22;;
27365;SDS011;14837;57.148;-2.144;2023-05-07T05:35:30;35.42;;;5.97;;
27365;SDS011;14837;57.148;-2.144;2023-05-07T05:37:57;26.63;;;5.75;;
27365;SDS011;14837;57.148;-2.144;2023-05-07T05:40:23;40.22;;;6.65;;
27365;SDS011;14837;57.148;-2.144;2023-05-07T05:42:50;38.15;;;7.22;;
27365;SDS011;14837;57.148;-2.144;2023-05-07T05:45:16;42.90;;;5.85;;
27365;SDS011;14837;57.148;-2.144;2023-05-07T05:47:43;16.60;;;5.55;;
27365;SDS011;14837;57.148;-2.144;2023-05-07T05:50:10;33.67;;;6.63;;
27365;SDS011;14837;57.148;-2.144;2023-05-07T05:52:37;28.08;;;6.03;;
27365;SDS011;14837;57.148;-2.144;2023-05-07T05:55:04;22.67;;;6.03;;
27365;SDS011;14837;57.148;-2.144;2023-05-07T05:57:31;36.65;;;7.13;;
27365;SDS011;14837;57.148;-2.144;2023-05-07T05:59:57;12.95;;;5.10;;
27365;SDS011;14837;57.148;-2.144;2023-05-07T06:02:24;10.20;;;4.57;;
27365;SDS011;14837;57.148;-2.144;2023-05-07T06:04:50;28.63;;;6.00;;
27365;SDS011;14837;57.148;-2.144;2023-05-07T06:07:17;38.33;;;7.05;;
27365;SDS011;14837;57.148;-2.144;2023-05-07T06:09:44;21.42;;;5.90;;
27365;SDS011;14837;57.148;-2.144;2023-05-07T06:12:11;16.23;;;5.88;;
27365;SDS011;14837;57.148;-2.144;2023-05-07T06:14:37;22.00;;;5.80;;
27365;SDS011;14837;57.148;-2.144;2023-05-07T06:17:04;22.33;;;6.43;;
27365;SDS011;14837;57.148;-2.144;2023-05-07T06:19:31;36.92;;;6.85;;
27365;SDS011;14837;57.148;-2.144;2023-05-07T06:21:58;21.88;;;5.78;;
27365;SDS011;14837;57.148;-2.144;2023-05-07T06:24:24;16.10;;;6.22;;
27365;SDS011;14837;57.148;-2.144;2023-05-07T06:26:51;34.90;;;7.18;;
27365;SDS011;14837;57.148;-2.144;2023-05-07T06:29:18;33.33;;;7.32;;
27365;SDS011;14837;57.148;-2.144;2023-05-07T06:31:44;22.02;;;7.28;;
27365;SDS011;14837;57.148;-2.144;2023-05-07T06:34:11;14.80;;;5.40;;
27365;SDS011;14837;57.148;-2.144;2023-05-07T06:36:40;31.50;;;6.28;;
27365;SDS011;14837;57.148;-2.144;2023-05-07T06:39:07;33.22;;;7.45;;
27365;SDS011;14837;57.148;-2.144;2023-05-07T06:41:33;31.92;;;7.43;;
27365;SDS011;14837;57.148;-2.144;2023-05-07T06:44:02;18.42;;;6.68;;
27365;SDS011;14837;57.148;-2.144;2023-05-07T06:46:29;12.88;;;6.55;;
27365;SDS011;14837;57.148;-2.144;2023-05-07T06:48:55;25.63;;;7.55;;
27365;SDS011;14837;57.148;-2.144;2023-05-07T06:51:23;20.17;;;6.85;;
27365;SDS011;14837;57.148;-2.144;2023-05-07T06:53:49;23.98;;;6.57;;
27365;SDS011;14837;57.148;-2.144;2023-05-07T06:56:16;21.00;;;7.10;;
27365;SDS011;14837;57.148;-2.144;2023-05-07T06:58:42;20.58;;;6.97;;
27365;SDS011;14837;57.148;-2.144;2023-05-07T07:01:09;29.75;;;8.45;;
27365;SDS011;14837;57.148;-2.144;2023-05-07T07:03:35;21.70;;;7.75;;
27365;SDS011;14837;57.148;-2.144;2023-05-07T07:06:02;46.88;;;9.45;;
27365;SDS011;14837;57.148;-2.144;2023-05-07T07:08:29;49.10;;;9.18;;
27365;SDS011;14837;57.148;-2.144;2023-05-07T07:10:56;20.63;;;6.80;;
27365;SDS011;14837;57.148;-2.144;2023-05-07T07:13:22;36.60;;;9.18;;
27365;SDS011;14837;57.148;-2.144;2023-05-07T07:15:49;21.33;;;7.82;;
27365;SDS011;14837;57.148;-2.144;2023-05-07T07:18:15;15.52;;;6.88;;
27365;SDS011;14837;57.148;-2.144;2023-05-07T07:20:42;25.08;;;7.95;;
27365;SDS011;14837;57.148;-2.144;2023-05-07T07:23:10;20.77;;;7.88;;
27365;SDS011;14837;57.148;-2.144;2023-05-07T07:25:37;32.50;;;8.85;;
27365;SDS011;14837;57.148;-2.144;2023-05-07T07:28:03;17.02;;;7.63;;
27365;SDS011;14837;57.148;-2.144;2023-05-07T07:30:30;17.63;;;6.55;;
27365;SDS011;14837;57.148;-2.144;2023-05-07T07:32:56;39.88;;;8.43;;
27365;SDS011;14837;57.148;-2.144;2023-05-07T07:35:29;19.75;;;7.72;;
27365;SDS011;14837;57.148;-2.144;2023-05-07T07:37:55;16.88;;;7.25;;
27365;SDS011;14837;57.148;-2.144;2023-05-07T07:40:23;13.90;;;6.50;;
27365;SDS011;14837;57.148;-2.144;2023-05-07T07:42:49;16.10;;;6.95;;
27365;SDS011;14837;57.148;-2.144;2023-05-07T07:45:16;22.30;;;7.55;;
27365;SDS011;14837;57.148;-2.144;2023-05-07T07:47:42;14.88;;;6.80;;
27365;SDS011;14837;57.148;-2.144;2023-05-07T07:50:09;12.60;;;6.20;;
27365;SDS011;14837;57.148;-2.144;2023-05-07T07:52:39;11.50;;;5.20;;
27365;SDS011;14837;57.148;-2.144;2023-05-07T07:55:07;8.90;;;6.07;;
27365;SDS011;14837;57.148;-2.144;2023-05-07T07:57:33;9.73;;;6.18;;
27365;SDS011;14837;57.148;-2.144;2023-05-07T08:00:00;6.82;;;4.32;;
27365;SDS011;14837;57.148;-2.144;2023-05-07T08:02:27;11.35;;;4.43;;
27365;SDS011;14837;57.148;-2.144;2023-05-07T08:04:54;5.68;;;4.53;;
27365;SDS011;14837;57.148;-2.144;2023-05-07T08:07:20;8.38;;;4.10;;
27365;SDS011;14837;57.148;-2.144;2023-05-07T08:09:48;14.18;;;4.90;;
27365;SDS011;14837;57.148;-2.144;2023-05-07T08:12:15;10.95;;;4.93;;
27365;SDS011;14837;57.148;-2.144;2023-05-07T08:14:42;14.20;;;5.95;;
27365;SDS011;14837;57.148;-2.144;2023-05-07T08:17:08;20.95;;;5.30;;
27365;SDS011;14837;57.148;-2.144;2023-05-07T08:19:36;9.30;;;4.68;;
27365;SDS011;14837;57.148;-2.144;2023-05-07T08:22:03;18.45;;;5.00;;
27365;SDS011;14837;57.148;-2.144;2023-05-07T08:24:30;18.85;;;5.53;;
27365;SDS011;14837;57.148;-2.144;2023-05-07T08:26:57;19.85;;;5.72;;
27365;SDS011;14837;57.148;-2.144;2023-05-07T08:29:23;16.52;;;4.53;;
27365;SDS011;14837;57.148;-2.144;2023-05-07T08:31:50;11.65;;;4.93;;
27365;SDS011;14837;57.148;-2.144;2023-05-07T08:34:16;11.93;;;4.90;;
27365;SDS011;14837;57.148;-2.144;2023-05-07T08:36:43;12.60;;;4.93;;
27365;SDS011;14837;57.148;-2.144;2023-05-07T08:39:10;9.05;;;4.95;;
27365;SDS011;14837;57.148;-2.144;2023-05-07T08:41:36;6.78;;;4.40;;
27365;SDS011;14837;57.148;-2.144;2023-05-07T08:44:03;7.78;;;4.40;;
27365;SDS011;14837;57.148;-2.144;2023-05-07T08:46:33;23.45;;;5.57;;
27365;SDS011;14837;57.148;-2.144;2023-05-07T08:49:00;8.68;;;4.65;;
27365;SDS011;14837;57.148;-2.144;2023-05-07T08:51:26;20.40;;;5.68;;
27365;SDS011;14837;57.148;-2.144;2023-05-07T08:53:53;14.30;;;6.20;;
27365;SDS011;14837;57.148;-2.144;2023-05-07T08:56:20;13.32;;;6.32;;
27365;SDS011;14837;57.148;-2.144;2023-05-07T08:58:48;20.58;;;7.15;;
27365;SDS011;14837;57.148;-2.144;2023-05-07T09:01:15;27.73;;;7.40;;
27365;SDS011;14837;57.148;-2.144;2023-05-07T09:03:44;13.93;;;6.30;;
27365;SDS011;14837;57.148;-2.144;2023-05-07T09:06:11;28.48;;;8.05;;
27365;SDS011;14837;57.148;-2.144;2023-05-07T09:08:38;14.57;;;6.63;;
27365;SDS011;14837;57.148;-2.144;2023-05-07T09:11:04;15.82;;;7.85;;
27365;SDS011;14837;57.148;-2.144;2023-05-07T09:13:31;14.43;;;6.50;;
27365;SDS011;14837;57.148;-2.144;2023-05-07T09:15:59;14.40;;;7.35;;
27365;SDS011;14837;57.148;-2.144;2023-05-07T09:18:40;20.30;;;8.60;;
27365;SDS011;14837;57.148;-2.144;2023-05-07T09:21:09;15.90;;;8.13;;
27365;SDS011;14837;57.148;-2.144;2023-05-07T09:23:36;18.88;;;8.40;;
27365;SDS011;14837;57.148;-2.144;2023-05-07T09:26:02;21.83;;;10.13;;
27365;SDS011;14837;57.148;-2.144;2023-05-07T09:28:30;20.95;;;8.82;;
27365;SDS011;14837;57.148;-2.144;2023-05-07T09:30:59;20.67;;;9.50;;
27365;SDS011;14837;57.148;-2.144;2023-05-07T09:33:27;17.63;;;8.63;;
27365;SDS011;14837;57.148;-2.144;2023-05-07T09:35:53;22.20;;;9.05;;
27365;SDS011;14837;57.148;-2.144;2023-05-07T09:38:20;39.58;;;10.38;;
27365;SDS011;14837;57.148;-2.144;2023-05-07T09:40:47;21.05;;;9.45;;
27365;SDS011;14837;57.148;-2.144;2023-05-07T09:43:14;20.90;;;8.70;;
27365;SDS011;14837;57.148;-2.144;2023-05-07T09:45:40;40.13;;;11.48;;
27365;SDS011;14837;57.148;-2.144;2023-05-07T09:48:07;25.02;;;11.15;;
27365;SDS011;14837;57.148;-2.144;2023-05-07T09:50:47;45.90;;;12.48;;
27365;SDS011;14837;57.148;-2.144;2023-05-07T09:53:14;34.67;;;11.18;;
27365;SDS011;14837;57.148;-2.144;2023-05-07T09:55:42;33.13;;;11.13;;
27365;SDS011;14837;57.148;-2.144;2023-05-07T09:58:09;47.42;;;10.70;;
27365;SDS011;14837;57.148;-2.144;2023-05-07T10:00:39;19.10;;;9.32;;
27365;SDS011;14837;57.148;-2.144;2023-05-07T10:03:06;28.95;;;9.70;;
27365;SDS011;14837;57.148;-2.144;2023-05-07T10:05:34;31.05;;;9.95;;
27365;SDS011;14837;57.148;-2.144;2023-05-07T10:08:01;48.17;;;12.30;;
27365;SDS011;14837;57.148;-2.144;2023-05-07T10:10:30;41.38;;;13.15;;
27365;SDS011;14837;57.148;-2.144;2023-05-07T10:12:57;29.95;;;9.52;;
27365;SDS011;14837;57.148;-2.144;2023-05-07T10:15:24;20.13;;;10.57;;
27365;SDS011;14837;57.148;-2.144;2023-05-07T10:17:51;28.30;;;9.15;;
27365;SDS011;14837;57.148;-2.144;2023-05-07T10:20:19;32.70;;;9.27;;
27365;SDS011;14837;57.148;-2.144;2023-05-07T10:22:47;16.40;;;8.57;;
27365;SDS011;14837;57.148;-2.144;2023-05-07T10:25:14;21.67;;;8.93;;
27365;SDS011;14837;57.148;-2.144;2023-05-07T10:27:42;13.30;;;6.72;;
27365;SDS011;14837;57.148;-2.144;2023-05-07T10:30:16;11.35;;;7.18;;
27365;SDS011;14837;57.148;-2.144;2023-05-07T10:32:50;13.20;;;7.35;;
27365;SDS011;14837;57.148;-2.144;2023-05-07T10:35:25;8.65;;;7.20;;
27365;SDS011;14837;57.148;-2.144;2023-05-07T10:37:52;12.05;;;8.15;;
27365;SDS011;14837;57.148;-2.144;2023-05-07T10:40:20;10.52;;;7.30;;
27365;SDS011;14837;57.148;-2.144;2023-05-07T10:42:59;9.75;;;8.05;;
27365;SDS011;14837;57.148;-2.144;2023-05-07T10:45:27;9.65;;;7.55;;
27365;SDS011;14837;57.148;-2.144;2023-05-07T10:48:06;6.32;;;4.97;;
27365;SDS011;14837;57.148;-2.144;2023-05-07T10:51:17;5.03;;;3.88;;
27365;SDS011;14837;57.148;-2.144;2023-05-07T10:53:40;4.25;;;3.47;;
27365;SDS011;14837;57.148;-2.144;2023-05-07T10:58:40;5.70;;;4.00;;
27365;SDS011;14837;57.148;-2.144;2023-05-07T11:01:06;4.30;;;3.90;;
27365;SDS011;14837;57.148;-2.144;2023-05-07T11:03:33;4.90;;;4.05;;
27365;SDS011;14837;57.148;-2.144;2023-05-07T11:06:09;4.05;;;3.30;;
27365;SDS011;14837;57.148;-2.144;2023-05-07T11:11:19;6.63;;;4.60;;
27365;SDS011;14837;57.148;-2.144;2023-05-07T11:13:48;6.32;;;4.88;;
27365;SDS011;14837;57.148;-2.144;2023-05-07T11:16:17;6.00;;;4.70;;
27365;SDS011;14837;57.148;-2.144;2023-05-07T11:18:46;5.15;;;3.80;;
27365;SDS011;14837;57.148;-2.144;2023-05-07T11:21:14;5.65;;;4.22;;
27365;SDS011;14837;57.148;-2.144;2023-05-07T11:23:58;4.15;;;3.78;;
27365;SDS011;14837;57.148;-2.144;2023-05-07T11:26:25;4.43;;;3.58;;
27365;SDS011;14837;57.148;-2.144;2023-05-07T11:28:52;4.95;;;3.92;;
27365;SDS011;14837;57.148;-2.144;2023-05-07T11:31:20;5.60;;;4.55;;
27365;SDS011;14837;57.148;-2.144;2023-05-07T11:33:47;8.55;;;5.38;;
27365;SDS011;14837;57.148;-2.144;2023-05-07T11:36:13;6.57;;;5.13;;
27365;SDS011;14837;57.148;-2.144;2023-05-07T11:38:40;6.13;;;4.55;;
27365;SDS011;14837;57.148;-2.144;2023-05-07T11:41:07;6.40;;;4.43;;
27365;SDS011;14837;57.148;-2.144;2023-05-07T11:43:34;6.20;;;4.82;;
27365;SDS011;14837;57.148;-2.144;2023-05-07T11:46:09;6.03;;;5.28;;
27365;SDS011;14837;57.148;-2.144;2023-05-07T11:48:36;5.25;;;4.43;;
27365;SDS011;14837;57.148;-2.144;2023-05-07T11:51:03;8.70;;;6.22;;
27365;SDS011;14837;57.148;-2.144;2023-05-07T11:53:40;7.78;;;6.00;;
27365;SDS011;14837;57.148;-2.144;2023-05-07T11:56:07;7.10;;;5.35;;
27365;SDS011;14837;57.148;-2.144;2023-05-07T11:58:34;12.13;;;7.28;;
27365;SDS011;14837;57.148;-2.144;2023-05-07T12:01:00;7.32;;;5.55;;
27365;SDS011;14837;57.148;-2.144;2023-05-07T12:03:27;7.78;;;6.05;;
27365;SDS011;14837;57.148;-2.144;2023-05-07T12:05:57;7.05;;;5.20;;
27365;SDS011;14837;57.148;-2.144;2023-05-07T12:08:23;6.57;;;5.15;;
27365;SDS011;14837;57.148;-2.144;2023-05-07T12:10:51;7.45;;;5.50;;
27365;SDS011;14837;57.148;-2.144;2023-05-07T12:13:18;5.80;;;4.30;;
27365;SDS011;14837;57.148;-2.144;2023-05-07T12:15:45;6.85;;;4.80;;
27365;SDS011;14837;57.148;-2.144;2023-05-07T12:18:12;8.65;;;6.00;;
27365;SDS011;14837;57.148;-2.144;2023-05-07T12:20:39;11.63;;;6.97;;
27365;SDS011;14837;57.148;-2.144;2023-05-07T12:23:05;12.25;;;8.60;;
27365;SDS011;14837;57.148;-2.144;2023-05-07T12:25:36;11.02;;;8.02;;
27365;SDS011;14837;57.148;-2.144;2023-05-07T12:28:02;12.75;;;7.45;;
27365;SDS011;14837;57.148;-2.144;2023-05-07T12:30:31;15.50;;;7.55;;
27365;SDS011;14837;57.148;-2.144;2023-05-07T12:32:58;11.68;;;7.13;;
27365;SDS011;14837;57.148;-2.144;2023-05-07T12:35:47;11.95;;;7.72;;
27365;SDS011;14837;57.148;-2.144;2023-05-07T12:38:13;12.90;;;7.78;;
27365;SDS011;14837;57.148;-2.144;2023-05-07T12:40:41;12.20;;;8.70;;
27365;SDS011;14837;57.148;-2.144;2023-05-07T12:43:08;16.23;;;7.60;;
27365;SDS011;14837;57.148;-2.144;2023-05-07T12:45:41;13.27;;;8.68;;
27365;SDS011;14837;57.148;-2.144;2023-05-07T12:48:09;10.45;;;7.93;;
27365;SDS011;14837;57.148;-2.144;2023-05-07T12:50:36;12.38;;;7.03;;
27365;SDS011;14837;57.148;-2.144;2023-05-07T12:53:03;11.43;;;7.85;;
27365;SDS011;14837;57.148;-2.144;2023-05-07T12:55:32;9.45;;;6.72;;
27365;SDS011;14837;57.148;-2.144;2023-05-07T12:58:00;11.80;;;7.47;;
27365;SDS011;14837;57.148;-2.144;2023-05-07T13:00:34;13.98;;;8.73;;
27365;SDS011;14837;57.148;-2.144;2023-05-07T13:03:00;11.18;;;7.88;;
27365;SDS011;14837;57.148;-2.144;2023-05-07T13:05:27;12.43;;;6.95;;
27365;SDS011;14837;57.148;-2.144;2023-05-07T13:07:54;10.85;;;7.85;;
27365;SDS011;14837;57.148;-2.144;2023-05-07T13:10:21;11.98;;;7.45;;
27365;SDS011;14837;57.148;-2.144;2023-05-07T13:12:48;16.02;;;9.55;;
27365;SDS011;14837;57.148;-2.144;2023-05-07T13:15:15;20.55;;;11.10;;
27365;SDS011;14837;57.148;-2.144;2023-05-07T13:17:42;15.93;;;10.50;;
27365;SDS011;14837;57.148;-2.144;2023-05-07T13:20:09;16.85;;;10.90;;
27365;SDS011;14837;57.148;-2.144;2023-05-07T13:22:35;14.57;;;9.25;;
27365;SDS011;14837;57.148;-2.144;2023-05-07T13:25:02;14.68;;;10.23;;
27365;SDS011;14837;57.148;-2.144;2023-05-07T13:27:29;15.60;;;9.60;;
27365;SDS011;14837;57.148;-2.144;2023-05-07T13:29:57;13.27;;;8.48;;
27365;SDS011;14837;57.148;-2.144;2023-05-07T13:32:23;11.45;;;8.52;;
27365;SDS011;14837;57.148;-2.144;2023-05-07T13:34:50;12.13;;;7.70;;
27365;SDS011;14837;57.148;-2.144;2023-05-07T13:37:16;8.77;;;6.68;;
27365;SDS011;14837;57.148;-2.144;2023-05-07T13:39:43;9.80;;;6.13;;
27365;SDS011;14837;57.148;-2.144;2023-05-07T13:42:10;9.63;;;6.38;;
27365;SDS011;14837;57.148;-2.144;2023-05-07T13:44:37;8.80;;;5.75;;
27365;SDS011;14837;57.148;-2.144;2023-05-07T13:47:04;9.60;;;6.28;;
27365;SDS011;14837;57.148;-2.144;2023-05-07T13:49:30;6.15;;;4.63;;
27365;SDS011;14837;57.148;-2.144;2023-05-07T13:51:57;6.97;;;4.55;;
27365;SDS011;14837;57.148;-2.144;2023-05-07T13:54:23;5.00;;;4.03;;
27365;SDS011;14837;57.148;-2.144;2023-05-07T13:56:50;5.80;;;4.35;;
27365;SDS011;14837;57.148;-2.144;2023-05-07T13:59:16;5.63;;;3.78;;
27365;SDS011;14837;57.148;-2.144;2023-05-07T14:01:43;7.80;;;4.55;;
27365;SDS011;14837;57.148;-2.144;2023-05-07T14:04:09;4.95;;;3.80;;
27365;SDS011;14837;57.148;-2.144;2023-05-07T14:06:36;3.95;;;3.55;;
27365;SDS011;14837;57.148;-2.144;2023-05-07T14:09:02;5.72;;;3.60;;
27365;SDS011;14837;57.148;-2.144;2023-05-07T14:11:30;4.30;;;3.20;;
27365;SDS011;14837;57.148;-2.144;2023-05-07T14:13:59;4.03;;;2.95;;
27365;SDS011;14837;57.148;-2.144;2023-05-07T14:16:25;9.35;;;4.00;;
27365;SDS011;14837;57.148;-2.144;2023-05-07T14:18:52;29.80;;;5.18;;
27365;SDS011;14837;57.148;-2.144;2023-05-07T14:21:23;18.83;;;4.35;;
27365;SDS011;14837;57.148;-2.144;2023-05-07T14:23:50;17.20;;;4.95;;
27365;SDS011;14837;57.148;-2.144;2023-05-07T14:26:17;21.73;;;6.00;;
27365;SDS011;14837;57.148;-2.144;2023-05-07T14:28:43;5.53;;;3.58;;